sensor_id;sensor_type;location;lat;lon;timestamp;pressure;altitude;pressure_sealevel;temperature;humidity
54666;BME280;40566;50.006;36.180;2022-11-24T12:42:49;99580.50;;;2.72;78.47
54666;BME280;40566;50.006;36.180;2022-11-24T12:48:15;99571.97;;;2.52;79.11
54666;BME280;40566;50.006;36.180;2022-11-24T12:53:23;99552.38;;;2.48;79.53
54666;BME280;40566;50.006;36.180;2022-11-24T13:08:37;99551.47;;;2.24;79.69
54666;BME280;40566;50.006;36.180;2022-11-24T13:13:57;99554.00;;;2.21;79.85
54666;BME280;40566;50.006;36.180;2022-11-24T13:19:32;99542.94;;;2.19;79.54
54666;BME280;40566;50.006;36.180;2022-11-24T13:24:37;99547.19;;;2.17;79.69
54666;BME280;40566;50.006;36.180;2022-11-24T13:39:57;99540.34;;;1.96;80.21
54666;BME280;40566;50.006;36.180;2022-11-24T13:44:59;99542.00;;;1.91;80.37
54666;BME280;40566;50.006;36.180;2022-11-24T13:55:25;99533.44;;;1.79;80.32
54666;BME280;40566;50.006;36.180;2022-11-24T14:00:35;99526.66;;;1.78;80.15
54666;BME280;40566;50.006;36.180;2022-11-24T14:05:39;99520.75;;;1.84;79.92
54666;BME280;40566;50.006;36.180;2022-11-24T14:10:40;99529.22;;;1.80;80.13
54666;BME280;40566;50.006;36.180;2022-11-24T14:15:43;99531.81;;;1.88;79.92
54666;BME280;40566;50.006;36.180;2022-11-24T14:20:44;99524.09;;;1.77;80.05
54666;BME280;40566;50.006;36.180;2022-11-24T14:25:49;99515.59;;;1.75;80.34
54666;BME280;40566;50.006;36.180;2022-11-24T14:30:51;99529.22;;;1.74;80.29
54666;BME280;40566;50.006;36.180;2022-11-24T14:36:13;99512.22;;;1.76;79.95
54666;BME280;40566;50.006;36.180;2022-11-24T14:41:25;99506.22;;;1.68;80.15
54666;BME280;40566;50.006;36.180;2022-11-24T14:46:27;99511.31;;;1.65;80.26
54666;BME280;40566;50.006;36.180;2022-11-24T14:51:33;99517.22;;;1.64;80.14
54666;BME280;40566;50.006;36.180;2022-11-24T14:56:36;99510.41;;;1.59;80.33
54666;BME280;40566;50.006;36.180;2022-11-24T15:01:37;99505.31;;;1.59;80.09
54666;BME280;40566;50.006;36.180;2022-11-24T15:06:44;99516.41;;;1.66;79.94
54666;BME280;40566;50.006;36.180;2022-11-24T15:11:46;99508.72;;;1.62;79.91
54666;BME280;40566;50.006;36.180;2022-11-24T15:16:48;99512.13;;;1.57;80.00
54666;BME280;40566;50.006;36.180;2022-11-24T15:21:49;99505.31;;;1.55;80.29
54666;BME280;40566;50.006;36.180;2022-11-24T15:26:57;99499.38;;;1.57;80.13
54666;BME280;40566;50.006;36.180;2022-11-24T15:31:58;99504.53;;;1.68;79.98
54666;BME280;40566;50.006;36.180;2022-11-24T15:36:58;99502.84;;;1.72;79.63
54666;BME280;40566;50.006;36.180;2022-11-24T15:41:59;99506.25;;;1.75;79.38
54666;BME280;40566;50.006;36.180;2022-11-24T15:47:00;99511.34;;;1.82;79.57
54666;BME280;40566;50.006;36.180;2022-11-24T15:52:00;99516.50;;;1.91;79.29
54666;BME280;40566;50.006;36.180;2022-11-24T15:57:02;99520.81;;;2.00;78.81
54666;BME280;40566;50.006;36.180;2022-11-24T16:02:03;99520.78;;;1.96;78.78
54666;BME280;40566;50.006;36.180;2022-11-24T16:07:03;99534.34;;;1.86;79.05
54666;BME280;40566;50.006;36.180;2022-11-24T16:12:06;99532.63;;;1.81;79.11
54666;BME280;40566;50.006;36.180;2022-11-24T16:17:09;99537.75;;;1.87;79.03
54666;BME280;40566;50.006;36.180;2022-11-24T16:22:10;99546.22;;;1.81;79.08
54666;BME280;40566;50.006;36.180;2022-11-24T16:27:11;99550.50;;;1.87;79.00
54666;BME280;40566;50.006;36.180;2022-11-24T16:32:13;99547.97;;;1.90;78.98
54666;BME280;40566;50.006;36.180;2022-11-24T16:37:14;99537.78;;;1.90;78.77
54666;BME280;40566;50.006;36.180;2022-11-24T16:42:15;99538.59;;;1.89;79.08
54666;BME280;40566;50.006;36.180;2022-11-24T16:47:17;99533.50;;;1.87;79.30
54666;BME280;40566;50.006;36.180;2022-11-24T16:52:19;99521.56;;;1.83;79.23
54666;BME280;40566;50.006;36.180;2022-11-24T16:57:19;99521.59;;;1.85;79.11
54666;BME280;40566;50.006;36.180;2022-11-24T17:02:20;99527.59;;;1.96;78.89
54666;BME280;40566;50.006;36.180;2022-11-24T17:07:21;99511.44;;;1.98;78.60
54666;BME280;40566;50.006;36.180;2022-11-24T17:12:22;99514.81;;;1.99;78.58
54666;BME280;40566;50.006;36.180;2022-11-24T17:17:22;99523.34;;;2.00;78.79
54666;BME280;40566;50.006;36.180;2022-11-24T17:22:23;99518.25;;;2.00;78.67
54666;BME280;40566;50.006;36.180;2022-11-24T17:27:23;99521.63;;;1.98;78.77
54666;BME280;40566;50.006;36.180;2022-11-24T17:32:24;99527.59;;;2.01;78.51
54666;BME280;40566;50.006;36.180;2022-11-24T17:37:24;99525.06;;;2.02;78.67
54666;BME280;40566;50.006;36.180;2022-11-24T17:42:27;99532.72;;;2.08;78.17
54666;BME280;40566;50.006;36.180;2022-11-24T17:47:28;99536.09;;;2.03;78.32
54666;BME280;40566;50.006;36.180;2022-11-24T17:52:29;99536.09;;;1.96;78.39
54666;BME280;40566;50.006;36.180;2022-11-24T17:57:30;99529.25;;;1.95;78.38
54666;BME280;40566;50.006;36.180;2022-11-24T18:02:30;99535.19;;;1.91;78.48
54666;BME280;40566;50.006;36.180;2022-11-24T18:07:34;99533.53;;;1.98;78.29
54666;BME280;40566;50.006;36.180;2022-11-24T18:12:35;99530.13;;;1.99;78.31
54666;BME280;40566;50.006;36.180;2022-11-24T18:17:35;99532.72;;;2.04;78.16
54666;BME280;40566;50.006;36.180;2022-11-24T18:22:36;99531.03;;;2.06;78.01
54666;BME280;40566;50.006;36.180;2022-11-24T18:27:36;99533.56;;;2.04;77.93
54666;BME280;40566;50.006;36.180;2022-11-24T18:32:37;99542.06;;;2.06;78.18
54666;BME280;40566;50.006;36.180;2022-11-24T18:37:41;99530.19;;;2.10;77.95
54666;BME280;40566;50.006;36.180;2022-11-24T18:42:43;99533.56;;;2.10;78.01
54666;BME280;40566;50.006;36.180;2022-11-24T18:47:44;99542.94;;;2.10;77.84
54666;BME280;40566;50.006;36.180;2022-11-24T18:52:45;99549.69;;;1.98;78.21
54666;BME280;40566;50.006;36.180;2022-11-24T18:57:45;99549.69;;;2.03;78.08
54666;BME280;40566;50.006;36.180;2022-11-24T19:02:50;99550.56;;;2.08;77.82
54666;BME280;40566;50.006;36.180;2022-11-24T19:07:51;99553.97;;;2.10;77.87
54666;BME280;40566;50.006;36.180;2022-11-24T19:12:54;99548.03;;;2.13;77.75
54666;BME280;40566;50.006;36.180;2022-11-24T19:17:55;99553.13;;;2.13;77.93
54666;BME280;40566;50.006;36.180;2022-11-24T19:22:55;99558.22;;;2.07;77.81
54666;BME280;40566;50.006;36.180;2022-11-24T19:27:56;99564.16;;;2.07;77.92
54666;BME280;40566;50.006;36.180;2022-11-24T19:32:57;99552.28;;;2.12;77.71
54666;BME280;40566;50.006;36.180;2022-11-24T19:37:57;99557.41;;;2.15;77.62
54666;BME280;40566;50.006;36.180;2022-11-24T19:42:58;99565.94;;;2.24;77.68
54666;BME280;40566;50.006;36.180;2022-11-24T19:48:00;99561.69;;;2.24;77.52
54666;BME280;40566;50.006;36.180;2022-11-24T19:53:03;99562.53;;;2.26;77.66
54666;BME280;40566;50.006;36.180;2022-11-24T19:58:04;99569.34;;;2.24;77.76
54666;BME280;40566;50.006;36.180;2022-11-24T20:03:05;99582.97;;;2.29;77.64
54666;BME280;40566;50.006;36.180;2022-11-24T20:08:05;99594.03;;;2.25;77.65
54666;BME280;40566;50.006;36.180;2022-11-24T20:13:06;99594.03;;;2.25;77.55
54666;BME280;40566;50.006;36.180;2022-11-24T20:18:06;99594.84;;;2.29;77.62
54666;BME280;40566;50.006;36.180;2022-11-24T20:23:07;99584.66;;;2.35;77.47
54666;BME280;40566;50.006;36.180;2022-11-24T20:28:08;99588.06;;;2.32;77.41
54666;BME280;40566;50.006;36.180;2022-11-24T20:33:08;99576.19;;;2.31;77.45
54666;BME280;40566;50.006;36.180;2022-11-24T20:38:09;99567.66;;;2.28;77.68
54666;BME280;40566;50.006;36.180;2022-11-24T20:43:09;99571.03;;;2.24;77.69
54666;BME280;40566;50.006;36.180;2022-11-24T20:48:10;99567.63;;;2.23;77.65
54666;BME280;40566;50.006;36.180;2022-11-24T20:53:11;99567.63;;;2.22;77.76
54666;BME280;40566;50.006;36.180;2022-11-24T20:58:11;99566.78;;;2.24;77.80
54666;BME280;40566;50.006;36.180;2022-11-24T21:03:12;99571.91;;;2.27;77.72
54666;BME280;40566;50.006;36.180;2022-11-24T21:08:12;99571.03;;;2.22;77.78
54666;BME280;40566;50.006;36.180;2022-11-24T21:13:13;99579.53;;;2.18;77.70
54666;BME280;40566;50.006;36.180;2022-11-24T21:18:13;99587.19;;;2.24;77.78
54666;BME280;40566;50.006;36.180;2022-11-24T21:23:14;99580.38;;;2.25;77.53
54666;BME280;40566;50.006;36.180;2022-11-24T21:28:15;99569.34;;;2.24;77.51
54666;BME280;40566;50.006;36.180;2022-11-24T21:33:15;99580.41;;;2.26;77.54
54666;BME280;40566;50.006;36.180;2022-11-24T21:38:16;99585.53;;;2.29;77.41
54666;BME280;40566;50.006;36.180;2022-11-24T21:43:16;99571.88;;;2.23;77.59
54666;BME280;40566;50.006;36.180;2022-11-24T21:48:17;99567.66;;;2.26;77.50
54666;BME280;40566;50.006;36.180;2022-11-24T21:53:17;99560.84;;;2.25;77.39
54666;BME280;40566;50.006;36.180;2022-11-24T21:58:18;99558.25;;;2.19;77.62
54666;BME280;40566;50.006;36.180;2022-11-24T22:03:19;99548.06;;;2.21;77.32
54666;BME280;40566;50.006;36.180;2022-11-24T22:08:20;99553.16;;;2.16;77.74
54666;BME280;40566;50.006;36.180;2022-11-24T22:13:21;99550.59;;;2.16;77.70
54666;BME280;40566;50.006;36.180;2022-11-24T22:18:21;99550.59;;;2.21;77.31
54666;BME280;40566;50.006;36.180;2022-11-24T22:23:22;99548.91;;;2.20;77.37
54666;BME280;40566;50.006;36.180;2022-11-24T22:28:23;99553.16;;;2.16;77.20
54666;BME280;40566;50.006;36.180;2022-11-24T22:33:23;99553.16;;;2.11;77.46
54666;BME280;40566;50.006;36.180;2022-11-24T22:38:24;99559.06;;;2.07;77.52
54666;BME280;40566;50.006;36.180;2022-11-24T22:43:25;99567.59;;;2.14;77.32
54666;BME280;40566;50.006;36.180;2022-11-24T22:48:26;99558.25;;;2.10;77.53
54666;BME280;40566;50.006;36.180;2022-11-24T22:53:26;99556.56;;;2.13;77.39
54666;BME280;40566;50.006;36.180;2022-11-24T22:58:28;99564.19;;;2.12;77.46
54666;BME280;40566;50.006;36.180;2022-11-24T23:03:29;99554.00;;;2.16;77.31
54666;BME280;40566;50.006;36.180;2022-11-24T23:08:32;99550.59;;;2.13;77.33
54666;BME280;40566;50.006;36.180;2022-11-24T23:13:33;99563.34;;;2.11;77.52
54666;BME280;40566;50.006;36.180;2022-11-24T23:18:34;99554.84;;;2.17;77.23
54666;BME280;40566;50.006;36.180;2022-11-24T23:23:35;99554.84;;;2.14;77.32
54666;BME280;40566;50.006;36.180;2022-11-24T23:28:36;99562.53;;;2.20;77.25
54666;BME280;40566;50.006;36.180;2022-11-24T23:33:37;99562.53;;;2.15;77.50
54666;BME280;40566;50.006;36.180;2022-11-24T23:38:38;99565.91;;;2.11;77.51
54666;BME280;40566;50.006;36.180;2022-11-24T23:43:40;99570.16;;;2.14;77.30
54666;BME280;40566;50.006;36.180;2022-11-24T23:48:41;99576.09;;;2.14;77.67
54666;BME280;40566;50.006;36.180;2022-11-24T23:53:43;99578.66;;;2.19;77.32
54666;BME280;40566;50.006;36.180;2022-11-24T23:58:44;99582.06;;;2.18;77.54
